createdAt,value
2018-11-11T00:00:55.098Z,99309.41
2018-11-11T00:03:21.131Z,99309.80
2018-11-11T00:05:47.219Z,99307.72
2018-11-11T00:08:13.268Z,99310.97
2018-11-11T00:10:39.308Z,99306.42
2018-11-11T00:13:05.288Z,99306.87
2018-11-11T00:15:31.296Z,99309.02
2018-11-11T00:17:57.296Z,99305.21
2018-11-11T00:20:23.337Z,99302.17
2018-11-11T00:22:49.351Z,99300.84
2018-11-11T00:25:15.452Z,99302.48
2018-11-11T00:27:41.440Z,99300.31
2018-11-11T00:30:07.478Z,99296.31
2018-11-11T00:32:33.480Z,99294.11
2018-11-11T00:34:59.789Z,99293.30
2018-11-11T00:37:25.829Z,99293.91
2018-11-11T00:39:51.959Z,99292.53
2018-11-11T00:42:18.575Z,99291.75
2018-11-11T00:44:44.598Z,99290.81
2018-11-11T00:47:10.639Z,99288.19
2018-11-11T00:49:36.709Z,99288.08
2018-11-11T00:52:02.795Z,99284.35
2018-11-11T00:54:28.828Z,99282.69
2018-11-11T00:56:54.922Z,99278.68
2018-11-11T00:59:22.918Z,99277.62
2018-11-11T01:01:49.799Z,99274.75
2018-11-11T01:04:15.826Z,99277.22
2018-11-11T01:06:42.562Z,99280.97
2018-11-11T01:09:08.611Z,99288.00
2018-11-11T01:11:35.443Z,99293.05
2018-11-11T01:14:01.544Z,99298.28
2018-11-11T01:16:27.694Z,99297.69
2018-11-11T01:18:53.785Z,99302.55
2018-11-11T01:21:19.893Z,99303.45
2018-11-11T01:23:46.042Z,99297.87
2018-11-11T01:26:12.086Z,99295.72
2018-11-11T01:28:38.283Z,99298.84
2018-11-11T01:31:04.400Z,99301.81
2018-11-11T01:33:30.419Z,99303.87
2018-11-11T01:35:57.275Z,99296.45
2018-11-11T01:38:23.284Z,99285.73
2018-11-11T01:40:49.378Z,99275.08
2018-11-11T01:43:15.532Z,99270.16
2018-11-11T01:45:41.602Z,99286.16
2018-11-11T01:48:08.316Z,99281.29
2018-11-11T01:50:35.074Z,99276.58
2018-11-11T01:53:02.395Z,99278.13
2018-11-11T01:55:29.082Z,99287.63
2018-11-11T01:57:55.264Z,99294.14
2018-11-11T02:00:23.870Z,99299.24
2018-11-11T02:02:49.939Z,99294.63
2018-11-11T02:05:17.225Z,99296.77
2018-11-11T02:07:43.831Z,99307.78
2018-11-11T02:10:09.899Z,99315.00
2018-11-11T02:12:36.035Z,99308.01
2018-11-11T02:15:02.153Z,99312.69
2018-11-11T02:17:28.273Z,99313.20
2018-11-11T02:19:54.360Z,99315.40
2018-11-11T02:22:20.419Z,99303.36
2018-11-11T02:24:46.456Z,99322.22
2018-11-11T02:27:13.169Z,99323.56
2018-11-11T02:29:39.225Z,99311.84
2018-11-11T02:32:06.200Z,99321.53
2018-11-11T02:34:32.281Z,99320.41
2018-11-11T02:36:58.324Z,99315.87
2018-11-11T02:39:24.390Z,99323.17
2018-11-11T02:41:50.498Z,99316.69
2018-11-11T02:44:16.569Z,99320.16
2018-11-11T02:46:42.721Z,99326.10
2018-11-11T02:49:08.844Z,99320.80
2018-11-11T02:51:34.965Z,99332.73
2018-11-11T02:54:01.000Z,99336.20
2018-11-11T02:56:27.165Z,99331.31
2018-11-11T02:58:53.164Z,99340.25
2018-11-11T03:01:19.189Z,99342.44
2018-11-11T03:03:46.104Z,99344.43
2018-11-11T03:06:12.147Z,99340.33
2018-11-11T03:08:38.247Z,99348.56
2018-11-11T03:11:04.372Z,99351.20
2018-11-11T03:13:30.396Z,99345.91
2018-11-11T03:15:56.475Z,99347.09
2018-11-11T03:18:22.544Z,99352.73
2018-11-11T03:20:48.584Z,99350.85
2018-11-11T03:23:14.666Z,99337.80
2018-11-11T03:25:40.758Z,99335.94
2018-11-11T03:28:06.822Z,99339.27
2018-11-11T03:30:32.874Z,99337.32
2018-11-11T03:32:58.917Z,99335.96
2018-11-11T03:35:24.925Z,99329.27
2018-11-11T03:37:51.043Z,99330.13
2018-11-11T03:40:17.073Z,99334.47
2018-11-11T03:42:43.139Z,99345.98
2018-11-11T03:45:09.281Z,99326.75
2018-11-11T03:47:35.378Z,99322.91
2018-11-11T03:50:01.436Z,99336.09
2018-11-11T03:52:27.575Z,99354.09
2018-11-11T03:54:53.740Z,99350.23
2018-11-11T03:57:19.855Z,99352.14
2018-11-11T03:59:46.053Z,99355.07
2018-11-11T04:02:12.102Z,99347.48
2018-11-11T04:04:38.196Z,99343.97
2018-11-11T04:07:04.213Z,99353.73
2018-11-11T04:09:30.265Z,99354.93
2018-11-11T04:12:00.016Z,99363.03
2018-11-11T04:14:26.005Z,99379.20
2018-11-11T04:16:51.993Z,99379.00
2018-11-11T04:19:18.738Z,99376.28
2018-11-11T04:21:44.775Z,99374.32
2018-11-11T04:24:10.864Z,99385.66
2018-11-11T04:26:36.866Z,99385.23
2018-11-11T04:29:02.944Z,99392.43
2018-11-11T04:31:29.051Z,99389.17
2018-11-11T04:33:55.148Z,99388.48
2018-11-11T04:36:21.145Z,99399.08
2018-11-11T04:38:47.144Z,99395.66
2018-11-11T04:41:13.206Z,99395.64
2018-11-11T04:43:39.259Z,99390.34
2018-11-11T04:46:05.357Z,99390.14
2018-11-11T04:48:31.423Z,99393.07
2018-11-11T04:50:57.470Z,99393.80
2018-11-11T04:53:23.478Z,99394.62
2018-11-11T04:55:49.456Z,99390.80
2018-11-11T04:58:15.535Z,99387.23
2018-11-11T05:00:41.644Z,99390.86
2018-11-11T05:03:07.720Z,99394.17
2018-11-11T05:05:33.777Z,99400.02
2018-11-11T05:07:59.755Z,99393.86
2018-11-11T05:10:25.785Z,99393.19
2018-11-11T05:12:51.814Z,99401.85
2018-11-11T05:15:17.937Z,99400.47
2018-11-11T05:17:43.984Z,99395.80
2018-11-11T05:20:10.065Z,99398.41
2018-11-11T05:22:36.159Z,99408.58
2018-11-11T05:25:02.270Z,99409.56
2018-11-11T05:27:29.326Z,99402.53
2018-11-11T05:29:55.427Z,99406.77
2018-11-11T05:32:21.438Z,99410.44
2018-11-11T05:34:47.450Z,99415.72
2018-11-11T05:37:13.467Z,99422.22
2018-11-11T05:39:39.604Z,99426.82
2018-11-11T05:42:06.221Z,99424.46
2018-11-11T05:44:32.221Z,99417.87
2018-11-11T05:46:58.270Z,99417.92
2018-11-11T05:49:24.276Z,99419.03
2018-11-11T05:51:50.320Z,99423.64
2018-11-11T05:54:16.417Z,99422.87
2018-11-11T05:56:42.482Z,99418.95
2018-11-11T05:59:09.281Z,99430.34
2018-11-11T06:01:35.308Z,99435.31
2018-11-11T06:04:04.552Z,99430.50
2018-11-11T06:06:31.390Z,99427.47
2018-11-11T06:08:57.409Z,99431.63
2018-11-11T06:11:23.489Z,99429.94
2018-11-11T06:13:49.505Z,99437.24
2018-11-11T06:16:15.529Z,99436.02
2018-11-11T06:23:47.649Z,99428.02
2018-11-11T06:26:13.772Z,99428.45
2018-11-11T06:28:39.823Z,99417.80
2018-11-11T06:31:05.849Z,99411.97
2018-11-11T06:33:31.917Z,99410.33
2018-11-11T06:35:58.010Z,99417.62
2018-11-11T06:40:59.580Z,99411.38
2018-11-11T06:43:25.612Z,99405.52
2018-11-11T06:45:51.701Z,99397.42
2018-11-11T06:48:21.041Z,99405.03
2018-11-11T06:50:47.095Z,99412.72
2018-11-11T06:53:13.067Z,99417.20
2018-11-11T06:55:39.165Z,99417.38
2018-11-11T06:58:09.480Z,99414.07
2018-11-11T07:00:36.130Z,99411.78
2018-11-11T07:03:02.144Z,99419.59
2018-11-11T07:08:01.962Z,99429.24
2018-11-11T07:10:28.013Z,99423.71
2018-11-11T07:17:59.084Z,99437.14
2018-11-11T07:20:25.067Z,99434.09
2018-11-11T07:22:55.633Z,99432.24
2018-11-11T07:25:21.681Z,99420.36
2018-11-11T07:27:47.669Z,99424.14
2018-11-11T07:30:13.743Z,99456.98
2018-11-11T07:32:40.392Z,99459.55
2018-11-11T07:35:08.452Z,99457.38
2018-11-11T07:37:34.506Z,99455.13
2018-11-11T07:40:00.627Z,99441.68
2018-11-11T07:42:26.686Z,99433.77
2018-11-11T07:44:52.613Z,99423.98
2018-11-11T07:47:20.176Z,99419.29
2018-11-11T07:49:46.187Z,99414.17
2018-11-11T07:52:12.905Z,99442.45
2018-11-11T07:54:39.070Z,99445.48
2018-11-11T07:57:05.210Z,99454.16
2018-11-11T07:59:31.337Z,99452.53
2018-11-11T08:01:57.373Z,99455.50
2018-11-11T08:04:23.516Z,99449.89
2018-11-11T08:06:49.693Z,99447.73
2018-11-11T08:09:15.771Z,99468.11
2018-11-11T08:11:41.964Z,99459.22
2018-11-11T08:14:08.080Z,99450.99
2018-11-11T08:24:09.180Z,99457.22
2018-11-11T08:26:35.286Z,99451.11
2018-11-11T08:29:04.453Z,99445.35
2018-11-11T08:46:28.712Z,99413.22
2018-11-11T08:48:56.836Z,99417.03
2018-11-11T08:51:22.918Z,99434.31
2018-11-11T08:53:49.058Z,99439.87
2018-11-11T08:56:15.127Z,99434.31
2018-11-11T08:58:41.368Z,99447.00
2018-11-11T09:01:07.480Z,99452.09
2018-11-11T09:03:33.509Z,99459.53
2018-11-11T09:05:59.563Z,99467.83
2018-11-11T09:08:25.679Z,99469.22
2018-11-11T09:10:51.844Z,99493.30
2018-11-11T09:13:17.918Z,99492.80
2018-11-11T09:15:43.972Z,99495.16
2018-11-11T09:18:10.179Z,99485.63
2018-11-11T09:20:36.291Z,99476.36
2018-11-11T09:23:02.355Z,99475.40
2018-11-11T09:25:30.473Z,99478.91
2018-11-11T09:27:59.910Z,99464.25
2018-11-11T09:30:26.138Z,99451.67
2018-11-11T09:32:52.261Z,99463.25
2018-11-11T09:35:18.462Z,99479.61
2018-11-11T09:37:45.148Z,99476.13
2018-11-11T09:40:11.215Z,99479.67
2018-11-11T09:42:37.487Z,99495.42
2018-11-11T09:45:03.840Z,99511.89
2018-11-11T09:47:29.954Z,99515.59
2018-11-11T09:49:56.979Z,99521.96
2018-11-11T09:52:23.094Z,99515.09
2018-11-11T09:54:49.134Z,99515.47
2018-11-11T09:57:15.180Z,99506.90
2018-11-11T09:59:42.296Z,99508.61
2018-11-11T10:02:08.317Z,99517.48
2018-11-11T10:04:35.248Z,99515.34
2018-11-11T10:07:01.306Z,99516.88
2018-11-11T10:09:28.727Z,99535.83
2018-11-11T10:11:54.794Z,99521.78
2018-11-11T10:14:22.864Z,99532.51
2018-11-11T10:16:49.090Z,99545.44
2018-11-11T10:24:52.514Z,99550.77
2018-11-11T10:27:18.665Z,99550.07
2018-11-11T10:29:46.227Z,99541.54
2018-11-11T10:32:12.338Z,99549.06
2018-11-11T10:34:38.497Z,99558.64
2018-11-11T10:37:04.816Z,99562.86
2018-11-11T10:39:31.041Z,99565.41
2018-11-11T10:42:00.235Z,99563.20
2018-11-11T10:44:28.502Z,99577.29
2018-11-11T10:46:54.939Z,99581.34
2018-11-11T10:49:21.174Z,99598.91
2018-11-11T10:51:47.324Z,99594.66
2018-11-11T10:54:13.426Z,99590.84
2018-11-11T10:56:40.000Z,99598.14
2018-11-11T10:59:06.105Z,99599.77
2018-11-11T11:01:35.910Z,99597.09
2018-11-11T11:04:10.627Z,99610.89
2018-11-11T11:06:36.711Z,99609.19
2018-11-11T11:11:52.524Z,99608.17
2018-11-11T11:16:51.110Z,99619.57
2018-11-11T11:19:17.326Z,99613.23
2018-11-11T11:21:43.350Z,99612.22
2018-11-11T11:24:09.458Z,99604.30
2018-11-11T11:26:35.541Z,99611.05
2018-11-11T11:29:01.614Z,99606.47
2018-11-11T11:31:27.726Z,99624.16
2018-11-11T11:33:54.532Z,99624.93
2018-11-11T11:36:20.644Z,99626.08
2018-11-11T11:38:46.746Z,99621.92
2018-11-11T11:41:12.878Z,99611.11
2018-11-11T11:43:38.941Z,99615.22
2018-11-11T11:46:05.059Z,99614.14
2018-11-11T11:51:28.627Z,99620.48
2018-11-11T11:53:57.271Z,99616.50
2018-11-11T11:56:25.160Z,99622.34
2018-11-11T11:58:51.254Z,99621.41
2018-11-11T12:01:20.013Z,99622.88
2018-11-11T12:03:46.185Z,99623.77
2018-11-11T12:06:13.972Z,99625.30
2018-11-11T12:24:44.071Z,99616.43
2018-11-11T12:29:45.146Z,99620.59
2018-11-11T12:32:11.357Z,99597.63
2018-11-11T12:34:37.470Z,99602.23
2018-11-11T12:37:04.768Z,99595.05
2018-11-11T12:42:05.686Z,99595.47
2018-11-11T12:49:37.935Z,99592.11
2018-11-11T12:52:04.099Z,99592.45
2018-11-11T12:54:30.879Z,99591.42
2018-11-11T12:56:57.027Z,99587.28
2018-11-11T12:59:23.115Z,99592.18
2018-11-11T13:01:52.481Z,99593.75
2018-11-11T13:04:19.117Z,99589.27
2018-11-11T13:06:46.532Z,99603.78
2018-11-11T13:09:14.056Z,99593.47
2018-11-11T13:11:40.221Z,99596.65
2018-11-11T13:14:06.268Z,99590.55
2018-11-11T13:16:33.412Z,99594.04
2018-11-11T13:18:59.575Z,99575.61
2018-11-11T13:21:32.131Z,99593.14
2018-11-11T13:26:54.920Z,99606.80
2018-11-11T13:32:00.594Z,99607.33
2018-11-11T13:34:29.067Z,99601.75
2018-11-11T13:42:06.694Z,99596.39
2018-11-11T13:44:37.601Z,99599.38
2018-11-11T13:47:04.213Z,99601.04
2018-11-11T13:49:30.716Z,99610.45
2018-11-11T13:51:56.909Z,99621.19
2018-11-11T13:54:22.992Z,99619.91
2018-11-11T13:56:49.057Z,99628.33
2018-11-11T14:01:54.678Z,99622.42
2018-11-11T14:04:20.699Z,99627.91
2018-11-11T14:06:46.824Z,99622.72
2018-11-11T14:09:12.936Z,99622.56
2018-11-11T14:11:39.047Z,99622.05
2018-11-11T14:14:05.184Z,99618.63
2018-11-11T14:16:31.308Z,99632.27
2018-11-11T14:18:57.725Z,99624.12
2018-11-11T14:21:24.279Z,99634.25
2018-11-11T14:23:50.411Z,99637.66
2018-11-11T14:26:16.442Z,99647.88
2018-11-11T14:28:42.650Z,99642.63
2018-11-11T14:31:08.690Z,99641.73
2018-11-11T14:33:34.746Z,99643.52
2018-11-11T14:36:00.902Z,99652.84
2018-11-11T14:38:26.929Z,99652.75
2018-11-11T14:40:53.042Z,99655.21
2018-11-11T14:43:19.151Z,99654.83
2018-11-11T14:45:45.529Z,99655.21
2018-11-11T14:48:11.657Z,99662.02
2018-11-11T14:50:37.765Z,99663.86
2018-11-11T14:53:03.889Z,99666.41
2018-11-11T14:55:29.976Z,99654.59
2018-11-11T14:57:56.129Z,99658.80
2018-11-11T15:00:22.264Z,99656.77
2018-11-11T15:02:48.403Z,99654.30
2018-11-11T15:05:14.438Z,99646.36
2018-11-11T15:07:40.528Z,99647.69
2018-11-11T15:10:06.686Z,99650.70
2018-11-11T15:12:32.746Z,99661.53
2018-11-11T15:14:58.841Z,99662.00
2018-11-11T15:17:24.987Z,99676.70
2018-11-11T15:19:51.132Z,99679.64
2018-11-11T15:22:17.202Z,99686.88
2018-11-11T15:24:43.328Z,99696.09
2018-11-11T15:27:09.437Z,99695.55
2018-11-11T15:29:36.601Z,99704.44
2018-11-11T15:32:02.727Z,99711.45
2018-11-11T15:34:28.829Z,99716.05
2018-11-11T15:36:54.939Z,99715.61
2018-11-11T15:39:21.065Z,99724.98
2018-11-11T15:41:47.450Z,99722.86
2018-11-11T15:44:13.604Z,99721.59
2018-11-11T15:46:39.733Z,99732.78
2018-11-11T15:49:05.838Z,99743.39
2018-11-11T15:51:31.923Z,99747.39
2018-11-11T15:53:58.060Z,99745.17
2018-11-11T15:56:24.203Z,99754.02
2018-11-11T15:58:50.593Z,99751.94
2018-11-11T16:01:16.684Z,99752.83
2018-11-11T16:03:42.804Z,99756.70
2018-11-11T16:06:08.912Z,99758.08
2018-11-11T16:08:35.016Z,99754.30
2018-11-11T16:11:01.129Z,99758.02
2018-11-11T16:13:27.239Z,99762.24
2018-11-11T16:15:53.288Z,99764.80
2018-11-11T16:18:19.386Z,99762.41
2018-11-11T16:20:46.578Z,99769.95
2018-11-11T16:23:12.707Z,99769.11
2018-11-11T16:25:38.900Z,99773.66
2018-11-11T16:28:04.979Z,99777.02
2018-11-11T16:30:31.109Z,99779.10
2018-11-11T16:32:57.172Z,99783.83
2018-11-11T16:35:23.859Z,99783.07
2018-11-11T16:37:50.030Z,99768.55
2018-11-11T16:40:16.215Z,99766.97
2018-11-11T16:42:42.381Z,99772.25
2018-11-11T16:45:08.437Z,99770.94
2018-11-11T16:47:34.476Z,99766.25
2018-11-11T16:50:00.534Z,99767.82
2018-11-11T16:52:26.626Z,99775.09
2018-11-11T16:54:53.140Z,99777.52
2018-11-11T16:57:19.295Z,99775.82
2018-11-11T16:59:46.201Z,99783.98
2018-11-11T17:02:12.321Z,99795.27
2018-11-11T17:04:38.438Z,99792.36
2018-11-11T17:07:04.540Z,99801.77
2018-11-11T17:09:30.567Z,99793.76
2018-11-11T17:14:29.037Z,99779.69
2018-11-11T17:16:55.162Z,99778.64
2018-11-11T17:19:21.302Z,99787.11
2018-11-11T17:21:47.929Z,99784.28
2018-11-11T17:24:13.940Z,99786.13
2018-11-11T17:26:40.037Z,99789.26
2018-11-11T17:29:06.145Z,99783.00
2018-11-11T17:31:32.207Z,99788.84
2018-11-11T17:33:58.359Z,99792.59
2018-11-11T17:36:24.405Z,99793.02
2018-11-11T17:38:50.605Z,99790.18
2018-11-11T17:41:16.709Z,99787.70
2018-11-11T17:43:42.842Z,99787.48
2018-11-11T17:46:09.251Z,99789.05
2018-11-11T17:48:36.574Z,99805.09
2018-11-11T17:51:02.786Z,99811.55
2018-11-11T17:53:28.980Z,99827.27
2018-11-11T17:55:55.149Z,99835.63
2018-11-11T17:58:21.238Z,99836.67
2018-11-11T18:00:47.346Z,99848.12
2018-11-11T18:03:13.599Z,99847.63
2018-11-11T18:05:39.822Z,99848.61
2018-11-11T18:08:05.910Z,99857.63
2018-11-11T18:10:32.079Z,99842.76
2018-11-11T18:12:58.175Z,99853.31
2018-11-11T18:15:24.332Z,99842.30
2018-11-11T18:17:50.423Z,99838.58
2018-11-11T18:20:16.576Z,99848.91
2018-11-11T18:22:42.669Z,99865.11
2018-11-11T18:25:08.823Z,99867.59
2018-11-11T18:27:36.107Z,99875.55
2018-11-11T18:30:02.058Z,99881.67
2018-11-11T18:32:28.197Z,99874.78
2018-11-11T18:34:54.417Z,99871.84
2018-11-11T18:37:20.565Z,99870.59
2018-11-11T18:39:46.656Z,99876.94
2018-11-11T18:42:12.767Z,99873.56
2018-11-11T18:44:39.318Z,99863.64
2018-11-11T18:47:05.346Z,99853.94
2018-11-11T18:49:31.397Z,99853.15
2018-11-11T18:51:57.518Z,99816.28
2018-11-11T18:54:23.610Z,99848.54
2018-11-11T18:56:50.013Z,99851.61
2018-11-11T18:59:16.114Z,99862.89
2018-11-11T19:01:42.313Z,99865.69
2018-11-11T19:04:08.386Z,99853.02
2018-11-11T19:06:34.645Z,99851.22
2018-11-11T19:09:00.770Z,99864.66
2018-11-11T19:11:26.914Z,99862.41
2018-11-11T19:13:53.840Z,99868.17
2018-11-11T19:16:19.915Z,99868.81
2018-11-11T19:18:46.010Z,99865.50
2018-11-11T19:21:13.071Z,99875.64
2018-11-11T19:23:39.260Z,99875.58
2018-11-11T19:26:05.414Z,99873.13
2018-11-11T19:28:33.266Z,99867.92
2018-11-11T19:30:59.336Z,99866.52
2018-11-11T19:33:25.550Z,99865.27
2018-11-11T19:35:52.918Z,99867.95
2018-11-11T19:38:19.011Z,99865.41
2018-11-11T19:40:45.025Z,99863.83
2018-11-11T19:43:11.117Z,99870.28
2018-11-11T19:45:37.218Z,99860.40
2018-11-11T19:48:03.431Z,99849.25
2018-11-11T19:50:29.703Z,99849.05
2018-11-11T19:52:55.962Z,99857.66
2018-11-11T19:55:22.035Z,99852.37
2018-11-11T19:57:48.085Z,99852.90
2018-11-11T20:00:14.236Z,99854.52
2018-11-11T20:02:40.418Z,99855.09
2018-11-11T20:05:06.478Z,99855.64
2018-11-11T20:07:32.546Z,99862.11
2018-11-11T20:09:58.687Z,99855.62
2018-11-11T20:12:24.790Z,99866.55
2018-11-11T20:14:50.851Z,99857.19
2018-11-11T20:17:16.917Z,99860.48
2018-11-11T20:19:42.948Z,99869.28
2018-11-11T20:22:08.964Z,99867.66
2018-11-11T20:24:35.220Z,99878.18
2018-11-11T20:27:02.569Z,99874.60
2018-11-11T20:29:28.630Z,99867.84
2018-11-11T20:31:54.741Z,99875.53
2018-11-11T20:34:20.933Z,99872.44
2018-11-11T20:36:47.094Z,99876.93
2018-11-11T20:39:13.206Z,99879.87
2018-11-11T20:41:40.498Z,99880.70
2018-11-11T20:44:06.598Z,99885.55
2018-11-11T20:46:32.695Z,99872.67
2018-11-11T20:51:47.115Z,99880.33
2018-11-11T20:54:15.128Z,99884.73
2018-11-11T20:56:41.249Z,99879.08
2018-11-11T20:59:07.373Z,99870.39
2018-11-11T21:01:33.428Z,99869.99
2018-11-11T21:03:59.788Z,99867.27
2018-11-11T21:06:25.818Z,99867.79
2018-11-11T21:08:51.836Z,99865.86
2018-11-11T21:11:17.754Z,99867.84
2018-11-11T21:13:43.821Z,99862.50
2018-11-11T21:16:09.897Z,99862.56
2018-11-11T21:18:35.947Z,99868.11
2018-11-11T21:21:03.941Z,99863.05
2018-11-11T21:23:29.910Z,99871.94
2018-11-11T21:25:56.222Z,99877.61
2018-11-11T21:28:22.198Z,99880.52
2018-11-11T21:30:48.153Z,99879.77
2018-11-11T21:33:14.189Z,99878.24
2018-11-11T21:35:40.244Z,99878.30
2018-11-11T21:38:06.279Z,99880.97
2018-11-11T21:40:32.206Z,99869.69
2018-11-11T21:42:58.200Z,99872.57
2018-11-11T21:45:24.160Z,99857.02
2018-11-11T21:47:50.467Z,99859.95
2018-11-11T21:50:16.556Z,99853.53
2018-11-11T21:52:42.624Z,99851.19
2018-11-11T21:55:08.692Z,99843.55
2018-11-11T21:57:35.390Z,99848.25
2018-11-11T22:00:01.378Z,99851.28
2018-11-11T22:02:27.408Z,99848.67
2018-11-11T22:04:53.446Z,99856.31
2018-11-11T22:07:19.395Z,99853.38
2018-11-11T22:09:45.382Z,99861.35
2018-11-11T22:12:12.063Z,99871.48
2018-11-11T22:14:38.320Z,99878.19
2018-11-11T22:17:04.455Z,99882.83
2018-11-11T22:19:30.395Z,99885.80
2018-11-11T22:21:56.429Z,99900.27
2018-11-11T22:24:22.455Z,99903.23
2018-11-11T22:26:48.504Z,99901.48
2018-11-11T22:29:14.474Z,99897.27
2018-11-11T22:31:41.148Z,99898.56
2018-11-11T22:34:07.186Z,99901.02
2018-11-11T22:36:33.172Z,99901.94
2018-11-11T22:38:59.147Z,99903.84
2018-11-11T22:41:25.121Z,99912.58
2018-11-11T22:43:51.092Z,99920.56
2018-11-11T22:46:17.164Z,99919.91
2018-11-11T22:48:43.179Z,99921.92
2018-11-11T22:51:09.188Z,99932.56
2018-11-11T22:53:35.537Z,99940.58
2018-11-11T22:56:01.488Z,99939.50
2018-11-11T22:58:29.544Z,99939.11
2018-11-11T23:00:55.934Z,99947.59
2018-11-11T23:03:21.910Z,99950.13
2018-11-11T23:05:47.886Z,99944.88
2018-11-11T23:08:13.862Z,99953.91
2018-11-11T23:10:39.884Z,99955.10
2018-11-11T23:13:05.835Z,99963.52
2018-11-11T23:15:31.797Z,99967.61
2018-11-11T23:17:57.812Z,99967.33
2018-11-11T23:20:23.802Z,99972.05
2018-11-11T23:22:49.798Z,99960.20
2018-11-11T23:25:15.753Z,99975.88
2018-11-11T23:27:41.757Z,99971.45
2018-11-11T23:30:07.693Z,99975.77
2018-11-11T23:32:33.664Z,99981.92
2018-11-11T23:34:59.686Z,99979.33
2018-11-11T23:37:25.672Z,99979.75
2018-11-11T23:39:51.694Z,99978.58
2018-11-11T23:42:17.695Z,99979.41
2018-11-11T23:44:43.669Z,99982.30
2018-11-11T23:47:09.670Z,99987.84
2018-11-11T23:49:35.662Z,99993.86
2018-11-11T23:52:01.612Z,99990.36
2018-11-11T23:54:27.571Z,99992.28
2018-11-11T23:56:53.523Z,99998.30
2018-11-11T23:59:19.859Z,100000.13
